Time;durP1;ratioP1;P1;durP2;ratioP2;P2;SDS_P1;SDS_P2;PMS_P1;PMS_P2;Temp;Humidity;BMP_temperature;BMP_pressure;BME280_temperature;BME280_humidity;BME280_pressure;Samples;Min_cycle;Max_cycle;Signal;HPM_P1;HPM_P2
2023/07/24 00:00:14;;;;;;;5.75;4.10;;;;;;;20.31;75.41;99971.78;683343;28;1279;-77
2023/07/24 00:00:35;;;;;;;6.20;4.27;;;;;;;20.32;75.54;99975.28;687831;28;996;-77
2023/07/24 00:00:56;;;;;;;5.93;3.97;;;;;;;20.30;75.49;99969.16;684974;28;1387;-77
2023/07/24 00:01:18;;;;;;;5.25;3.75;;;;;;;20.33;75.64;99979.66;685291;28;979;-77
2023/07/24 00:01:38;;;;;;;6.80;4.00;;;;;;;20.35;75.56;99967.28;685396;28;1076;-77
2023/07/24 00:01:59;;;;;;;7.22;4.20;;;;;;;20.27;75.27;99954.19;680096;29;1075;-77
2023/07/24 00:02:20;;;;;;;8.50;4.50;;;;;;;20.31;75.51;99970.88;685324;28;1081;-77
2023/07/24 00:02:40;;;;;;;6.57;4.05;;;;;;;20.28;75.43;99969.19;688048;28;1521;-77
2023/07/24 00:03:02;;;;;;;5.93;4.00;;;;;;;20.33;75.26;99971.72;691902;28;996;-78
2023/07/24 00:03:23;;;;;;;4.75;4.07;;;;;;;20.30;75.41;99963.84;687470;28;1324;-78
2023/07/24 00:03:44;;;;;;;4.80;4.10;;;;;;;20.26;75.44;99958.66;686134;28;1298;-76
2023/07/24 00:04:05;;;;;;;5.72;4.00;;;;;;;20.28;75.47;99961.22;682703;29;909;-76
2023/07/24 00:04:26;;;;;;;6.07;3.90;;;;;;;20.26;75.47;99958.66;685158;28;1005;-76
2023/07/24 00:04:47;;;;;;;6.15;3.75;;;;;;;20.27;75.38;99960.38;682700;29;795;-76
2023/07/24 00:05:08;;;;;;;5.00;3.60;;;;;;;20.26;75.47;99961.31;682635;28;1033;-77
2023/07/24 00:05:29;;;;;;;5.50;3.70;;;;;;;20.31;75.48;99965.59;685056;28;1093;-76
2023/07/24 00:05:49;;;;;;;5.88;3.90;;;;;;;20.23;75.46;99953.41;690272;28;1091;-76
2023/07/24 00:06:10;;;;;;;5.80;3.97;;;;;;;20.32;75.37;99957.63;690437;28;1156;-79
2023/07/24 00:06:31;;;;;;;5.47;3.70;;;;;;;20.27;75.47;99955.09;688381;28;1103;-77
2023/07/24 00:06:51;;;;;;;6.30;3.55;;;;;;;20.27;75.45;99959.50;687525;28;1305;-77
2023/07/24 00:07:12;;;;;;;7.13;3.80;;;;;;;20.26;75.37;99956.00;679048;29;1428;-77
2023/07/24 00:07:32;;;;;;;6.82;3.88;;;;;;;20.26;75.45;99958.66;679702;29;1458;-77
2023/07/24 00:07:53;;;;;;;6.60;4.22;;;;;;;20.25;75.49;99948.97;687991;28;1367;-77
2023/07/24 00:08:14;;;;;;;5.97;4.10;;;;;;;20.23;75.58;99956.06;690322;28;1308;-77
2023/07/24 00:08:34;;;;;;;7.95;4.30;;;;;;;20.22;75.59;99954.31;682110;29;1057;-77
2023/07/24 00:08:56;;;;;;;7.50;3.97;;;;;;;20.25;75.52;99956.91;682855;29;969;-77
2023/07/24 00:09:17;;;;;;;6.80;4.00;;;;;;;20.26;75.47;99969.25;679764;29;1073;-77
2023/07/24 00:09:37;;;;;;;5.97;4.18;;;;;;;20.24;75.58;99965.75;681704;29;1239;-78
2023/07/24 00:09:58;;;;;;;6.68;4.30;;;;;;;20.20;75.53;99948.19;685425;28;1144;-77
2023/07/24 00:10:18;;;;;;;6.10;4.10;;;;;;;20.17;75.81;99945.66;685377;28;1130;-77
2023/07/24 00:10:39;;;;;;;6.00;4.00;;;;;;;20.16;75.78;99946.53;685224;28;943;-77
2023/07/24 00:11:02;;;;;;;5.50;3.80;;;;;;;20.20;75.58;99948.19;685530;28;1046;-77
2023/07/24 00:11:23;;;;;;;5.18;3.60;;;;;;;20.22;75.77;99962.25;679900;29;1120;-77
2023/07/24 00:11:43;;;;;;;5.73;3.70;;;;;;;20.21;75.72;99952.59;682788;29;1224;-78
2023/07/24 00:12:05;;;;;;;6.10;3.90;;;;;;;20.19;75.75;99946.47;681898;29;996;-78
2023/07/24 00:12:25;;;;;;;6.75;3.90;;;;;;;20.14;75.85;99941.28;685122;28;1340;-77
2023/07/24 00:12:46;;;;;;;5.93;4.00;;;;;;;20.12;75.85;99950.19;685409;28;771;-78
2023/07/24 00:13:07;;;;;;;5.67;4.03;;;;;;;20.16;75.89;99946.53;682584;29;1045;-78
2023/07/24 00:13:27;;;;;;;5.75;4.30;;;;;;;20.12;75.89;99943.09;677018;28;1216;-77
2023/07/24 00:13:48;;;;;;;6.40;4.20;;;;;;;20.21;75.69;99957.88;680171;29;755;-78
2023/07/24 00:14:09;;;;;;;6.20;4.03;;;;;;;20.23;75.74;99957.84;682608;29;1199;-77
2023/07/24 00:14:29;;;;;;;6.22;3.90;;;;;;;20.20;75.59;99953.50;680412;29;1152;-78
2023/07/24 00:14:52;;;;;;;5.78;3.90;;;;;;;20.18;75.73;99952.69;685358;28;854;-77
2023/07/24 00:15:13;;;;;;;6.28;3.90;;;;;;;20.19;75.71;99948.22;685257;28;1130;-77
2023/07/24 00:15:33;;;;;;;5.20;3.60;;;;;;;20.18;75.82;99950.03;682147;28;1087;-77
2023/07/24 00:15:54;;;;;;;5.35;3.60;;;;;;;20.20;75.65;99958.78;679870;29;1076;-78
2023/07/24 00:16:15;;;;;;;5.20;3.75;;;;;;;20.24;75.53;99963.09;684582;28;1251;-77
2023/07/24 00:16:35;;;;;;;5.85;3.90;;;;;;;20.15;75.74;99950.09;685701;28;1067;-76
2023/07/24 00:16:56;;;;;;;8.60;4.10;;;;;;;20.20;75.71;99956.16;685060;28;1290;-77
2023/07/24 00:17:17;;;;;;;8.70;4.00;;;;;;;20.20;75.72;99950.84;679959;29;1002;-76
2023/07/24 00:17:37;;;;;;;8.27;3.80;;;;;;;20.17;75.68;99944.75;682345;28;1257;-77
2023/07/24 00:17:58;;;;;;;6.00;3.72;;;;;;;20.25;75.53;99956.03;688161;28;1206;-76
2023/07/24 00:18:18;;;;;;;5.70;3.90;;;;;;;20.16;75.46;99935.94;685290;28;1956;-77
2023/07/24 00:18:39;;;;;;;5.45;3.90;;;;;;;20.19;75.35;99948.22;687967;28;976;-77
2023/07/24 00:19:00;;;;;;;4.95;3.70;;;;;;;20.18;75.35;99943.84;682721;28;913;-78
2023/07/24 00:19:20;;;;;;;5.83;3.57;;;;;;;20.19;75.37;99946.47;685345;28;1081;-77
2023/07/24 00:19:41;;;;;;;5.95;3.70;;;;;;;20.17;75.40;99945.66;685154;28;1043;-77
2023/07/24 00:20:02;;;;;;;6.57;3.92;;;;;;;20.12;75.54;99943.09;685399;28;1042;-77
2023/07/24 00:20:24;;;;;;;6.10;3.90;;;;;;;20.13;75.59;99950.16;685183;28;1424;-77
2023/07/24 00:20:45;;;;;;;5.50;3.72;;;;;;;20.21;75.37;99943.75;685403;28;874;-77
2023/07/24 00:21:05;;;;;;;5.30;3.80;;;;;;;20.12;75.21;99939.59;682601;29;1140;-77
2023/07/24 00:21:26;;;;;;;5.43;3.97;;;;;;;20.17;75.22;99943.00;682977;28;1103;-77
2023/07/24 00:21:47;;;;;;;7.07;4.20;;;;;;;20.14;75.23;99938.63;682743;29;1274;-76
2023/07/24 00:22:07;;;;;;;7.18;4.28;;;;;;;20.12;75.28;99944.88;682070;29;994;-78
2023/07/24 00:22:28;;;;;;;7.67;4.33;;;;;;;20.18;75.31;99955.31;682267;29;1116;-77
2023/07/24 00:22:48;;;;;;;7.22;4.40;;;;;;;20.13;75.37;99955.44;682715;29;1069;-78
2023/07/24 00:23:09;;;;;;;7.20;4.50;;;;;;;20.10;75.12;99938.75;682559;28;1095;-77
2023/07/24 00:23:30;;;;;;;6.55;4.30;;;;;;;20.04;75.36;99937.09;682354;28;985;-77
2023/07/24 00:23:51;;;;;;;5.60;4.20;;;;;;;20.17;75.41;99958.88;677491;29;1172;-77
2023/07/24 00:24:11;;;;;;;6.03;4.07;;;;;;;20.09;75.37;99944.94;677555;29;1085;-77
2023/07/24 00:24:32;;;;;;;5.97;4.05;;;;;;;20.08;75.53;99940.56;678365;29;1285;-77
2023/07/24 00:24:53;;;;;;;5.97;4.10;;;;;;;20.12;75.46;99951.03;682747;29;1167;-77
2023/07/24 00:25:13;;;;;;;8.43;4.10;;;;;;;20.05;75.41;99948.59;682804;28;1114;-78
2023/07/24 00:25:34;;;;;;;8.77;4.30;;;;;;;19.99;75.48;99934.56;685004;28;1248;-77
2023/07/24 00:25:55;;;;;;;9.75;4.50;;;;;;;20.03;75.49;99934.53;685138;28;1100;-77
2023/07/24 00:26:15;;;;;;;6.70;4.53;;;;;;;20.02;75.41;99931.00;685087;28;1103;-77
2023/07/24 00:26:37;;;;;;;6.70;4.40;;;;;;;20.03;75.31;99937.16;686180;28;1071;-77
2023/07/24 00:26:58;;;;;;;5.45;3.90;;;;;;;19.98;75.41;99927.53;685362;28;1367;-77
2023/07/24 00:27:18;;;;;;;5.90;3.90;;;;;;;19.95;75.34;99932.94;685196;28;1130;-77
2023/07/24 00:27:39;;;;;;;5.55;4.00;;;;;;;20.00;75.49;99944.25;685251;28;1282;-77
2023/07/24 00:28:00;;;;;;;6.63;4.23;;;;;;;19.98;75.50;99932.84;682712;28;1006;-77
2023/07/24 00:28:21;;;;;;;7.03;4.25;;;;;;;20.00;75.30;99938.97;677307;29;1037;-77
2023/07/24 00:28:41;;;;;;;7.10;4.20;;;;;;;19.93;75.32;99928.56;682634;28;1018;-78
2023/07/24 00:29:02;;;;;;;6.35;4.35;;;;;;;19.88;75.57;99931.34;682649;29;1161;-76
2023/07/24 00:29:23;;;;;;;6.10;4.20;;;;;;;19.91;75.61;99933.91;685507;28;963;-77
2023/07/24 00:29:44;;;;;;;5.93;4.10;;;;;;;19.87;75.58;99921.63;688506;28;874;-77
2023/07/24 00:30:05;;;;;;;7.97;3.97;;;;;;;19.89;75.58;99933.06;685114;28;1320;-77
2023/07/24 00:30:26;;;;;;;7.65;3.97;;;;;;;19.93;75.70;99939.16;682356;29;1017;-77
2023/07/24 00:30:46;;;;;;;7.03;3.78;;;;;;;19.95;75.75;99943.53;682733;28;819;-77
2023/07/24 00:31:07;;;;;;;5.03;3.70;;;;;;;19.86;75.74;99930.47;682149;28;1076;-77
2023/07/24 00:31:28;;;;;;;5.10;3.70;;;;;;;19.86;75.75;99933.97;687645;28;1181;-77
2023/07/24 00:31:48;;;;;;;5.60;3.95;;;;;;;19.83;75.73;99923.47;688571;28;704;-77
2023/07/24 00:32:09;;;;;;;5.47;3.88;;;;;;;19.81;75.63;99935.00;685230;28;1279;-76
2023/07/24 00:32:30;;;;;;;5.35;3.55;;;;;;;19.86;75.72;99933.13;684896;28;1377;-77
2023/07/24 00:32:50;;;;;;;4.97;3.50;;;;;;;19.81;75.66;99930.59;677370;29;1224;-77
2023/07/24 00:33:11;;;;;;;5.70;3.65;;;;;;;19.80;75.59;99925.31;682533;29;1021;-77
2023/07/24 00:33:32;;;;;;;5.70;3.90;;;;;;;19.76;75.64;99926.28;685157;28;941;-76
2023/07/24 00:33:53;;;;;;;5.90;3.90;;;;;;;19.78;75.86;99930.66;682720;28;946;-77
2023/07/24 00:34:13;;;;;;;6.43;3.90;;;;;;;19.78;75.97;99930.66;687760;28;1092;-77
2023/07/24 00:34:34;;;;;;;6.97;4.00;;;;;;;19.79;75.63;99934.19;687903;28;964;-76
2023/07/24 00:34:57;;;;;;;7.13;4.25;;;;;;;19.84;75.82;99929.63;687917;28;913;-77
2023/07/24 00:35:18;;;;;;;5.70;4.00;;;;;;;19.86;75.95;99933.13;685141;28;1120;-77
2023/07/24 00:35:38;;;;;;;5.90;3.93;;;;;;;19.84;75.90;99925.22;679286;29;987;-77
2023/07/24 00:35:59;;;;;;;4.97;3.50;;;;;;;19.81;75.83;99927.06;680047;29;916;-77
2023/07/24 00:36:19;;;;;;;6.23;3.50;;;;;;;19.80;75.76;99931.47;685239;28;1179;-76
2023/07/24 00:36:40;;;;;;;5.85;3.40;;;;;;;19.77;75.74;99926.25;685298;28;1147;-76
2023/07/24 00:37:01;;;;;;;6.10;3.60;;;;;;;19.76;75.70;99928.94;688017;28;1138;-76
2023/07/24 00:37:21;;;;;;;5.00;3.70;;;;;;;19.76;75.75;99926.28;684931;28;1024;-77
2023/07/24 00:37:42;;;;;;;4.97;3.50;;;;;;;19.80;75.80;99942.06;677381;29;1034;-76
2023/07/24 00:38:03;;;;;;;4.57;3.28;;;;;;;19.83;75.74;99939.34;679126;29;1265;-76
2023/07/24 00:38:23;;;;;;;4.10;3.10;;;;;;;19.78;75.68;99929.78;677019;29;1972;-77
2023/07/24 00:38:44;;;;;;;4.53;3.38;;;;;;;19.76;75.86;99931.59;677232;29;943;-77
2023/07/24 00:39:05;;;;;;;4.68;3.47;;;;;;;19.77;75.83;99931.56;679902;29;1100;-77
2023/07/24 00:39:28;;;;;;;5.10;3.77;;;;;;;19.77;75.74;99930.66;682320;28;1218;-77
2023/07/24 00:39:48;;;;;;;4.72;3.50;;;;;;;19.81;75.82;99935.00;687971;28;878;-77
2023/07/24 00:40:09;;;;;;;5.18;3.60;;;;;;;19.75;75.75;99929.84;687789;28;1085;-76
2023/07/24 00:40:30;;;;;;;4.70;3.30;;;;;;;19.72;75.70;99925.50;686142;28;1452;-78
2023/07/24 00:40:51;;;;;;;4.72;3.30;;;;;;;19.72;75.61;99926.38;679928;29;1469;-77
2023/07/24 00:41:12;;;;;;;4.85;3.47;;;;;;;19.72;75.80;99921.09;687611;28;1145;-77
2023/07/24 00:41:32;;;;;;;5.87;3.80;;;;;;;19.72;75.41;99926.38;685020;28;1250;-77
2023/07/24 00:41:53;;;;;;;5.57;3.73;;;;;;;19.69;75.66;99920.28;682537;28;1175;-77
2023/07/24 00:42:15;;;;;;;6.82;3.50;;;;;;;19.71;75.56;99923.75;679780;28;2008;-77
2023/07/24 00:42:36;;;;;;;6.10;3.50;;;;;;;19.77;75.55;99930.66;687768;28;1210;-77
2023/07/24 00:42:57;;;;;;;5.20;3.80;;;;;;;19.72;75.59;99925.50;687820;28;1327;-77
2023/07/24 00:43:17;;;;;;;5.00;3.78;;;;;;;19.70;75.59;99922.91;687637;28;1026;-77
2023/07/24 00:43:38;;;;;;;5.40;3.63;;;;;;;19.71;75.30;99927.28;687852;28;1008;-77
2023/07/24 00:43:59;;;;;;;5.20;3.60;;;;;;;19.67;75.52;99928.25;686918;28;1055;-77
2023/07/24 00:44:19;;;;;;;5.20;3.80;;;;;;;19.71;75.41;99927.28;682395;28;1167;-77
2023/07/24 00:44:40;;;;;;;4.60;3.60;;;;;;;19.70;75.57;99922.00;687651;28;1079;-77
2023/07/24 00:45:01;;;;;;;4.72;3.58;;;;;;;19.69;75.56;99928.22;687747;28;1344;-77
2023/07/24 00:45:22;;;;;;;5.15;3.70;;;;;;;19.69;75.53;99926.47;687818;28;1052;-77
2023/07/24 00:45:45;;;;;;;5.65;3.70;;;;;;;19.62;75.60;99919.56;687461;28;1073;-77
2023/07/24 00:46:05;;;;;;;5.60;3.55;;;;;;;19.63;75.45;99920.41;682433;28;1091;-77
2023/07/24 00:46:31;;;;;;;5.20;3.60;;;;;;;19.65;75.65;99924.78;679631;29;1050;-78
2023/07/24 00:46:53;;;;;;;4.90;3.45;;;;;;;19.64;75.53;99923.03;685360;28;1037;-77
2023/07/24 00:47:14;;;;;;;5.95;3.45;;;;;;;19.58;75.70;99915.25;682544;29;1077;-77
2023/07/24 00:47:35;;;;;;;6.30;3.40;;;;;;;19.62;75.53;99935.44;682509;29;1028;-77
2023/07/24 00:47:56;;;;;;;7.43;3.47;;;;;;;19.56;75.98;99925.84;682528;29;946;-76
2023/07/24 00:48:17;;;;;;;6.03;3.53;;;;;;;19.56;75.95;99922.34;684843;28;1231;-77
2023/07/24 00:48:39;;;;;;;5.28;3.47;;;;;;;19.51;76.05;99913.63;682415;29;950;-77
2023/07/24 00:49:04;;;;;;;4.72;3.67;;;;;;;19.58;76.07;99929.34;682486;28;1096;-77
2023/07/24 00:49:26;;;;;;;5.30;3.80;;;;;;;19.51;76.03;99917.16;684938;28;986;-77
2023/07/24 00:49:48;;;;;;;4.70;3.53;;;;;;;19.54;75.98;99924.16;688054;28;807;-77
2023/07/24 00:50:11;;;;;;;8.95;3.60;;;;;;;19.55;76.01;99923.25;687754;28;1087;-77
2023/07/24 00:50:35;;;;;;;10.15;3.80;;;;;;;19.50;76.15;99926.00;687686;28;1060;-76
2023/07/24 00:50:56;;;;;;;10.35;3.90;;;;;;;19.56;76.08;99936.44;687841;28;977;-77
2023/07/24 00:51:17;;;;;;;6.38;4.00;;;;;;;19.51;75.99;99921.56;682553;29;918;-77
2023/07/24 00:51:39;;;;;;;5.53;4.00;;;;;;;19.46;76.17;99913.75;685098;28;1127;-77
2023/07/24 00:52:00;;;;;;;5.50;3.80;;;;;;;19.51;76.30;99927.75;682415;29;962;-77
2023/07/24 00:52:21;;;;;;;5.60;4.20;;;;;;;19.47;76.18;99919.91;685050;28;1183;-77
2023/07/24 00:52:42;;;;;;;5.57;4.20;;;;;;;19.52;76.20;99928.59;685367;28;981;-77
2023/07/24 00:53:04;;;;;;;6.55;4.20;;;;;;;19.47;76.09;99920.78;682461;28;1355;-77
2023/07/24 00:53:25;;;;;;;6.10;3.70;;;;;;;19.54;76.32;99926.81;685069;28;1054;-77
2023/07/24 00:53:47;;;;;;;6.55;3.67;;;;;;;19.51;76.05;99922.47;685615;28;1185;-77
2023/07/24 00:54:08;;;;;;;6.20;3.50;;;;;;;19.48;76.34;99917.22;690558;28;1040;-77
2023/07/24 00:54:32;;;;;;;6.30;4.00;;;;;;;19.49;76.27;99918.09;687668;28;983;-77
2023/07/24 00:54:53;;;;;;;6.72;4.03;;;;;;;19.51;76.38;99921.56;693439;28;1192;-77
2023/07/24 00:55:16;;;;;;;6.40;3.83;;;;;;;19.49;76.41;99918.09;687978;28;1249;-77
2023/07/24 00:55:37;;;;;;;6.53;3.80;;;;;;;19.48;76.18;99914.56;681957;28;1224;-77
2023/07/24 00:55:58;;;;;;;6.20;3.80;;;;;;;19.43;76.26;99900.59;682553;28;1129;-77
2023/07/24 00:56:18;;;;;;;6.47;4.00;;;;;;;19.43;76.30;99901.44;685167;28;1029;-77
2023/07/24 00:56:39;;;;;;;5.70;3.92;;;;;;;19.44;76.27;99905.84;687632;28;1134;-77
2023/07/24 00:57:02;;;;;;;5.10;3.90;;;;;;;19.51;76.04;99917.16;682492;29;1013;-78
2023/07/24 00:57:23;;;;;;;4.80;3.97;;;;;;;19.45;76.12;99904.06;677186;29;1022;-77
2023/07/24 00:57:44;;;;;;;5.82;3.80;;;;;;;19.44;76.26;99908.47;677445;29;813;-77
2023/07/24 00:58:06;;;;;;;5.82;3.78;;;;;;;19.37;76.18;99898.94;679849;29;1037;-76
2023/07/24 00:58:26;;;;;;;6.00;3.80;;;;;;;19.39;76.60;99899.78;684909;28;1968;-77
2023/07/24 00:58:48;;;;;;;6.90;4.00;;;;;;;19.37;76.32;99904.22;685269;28;1401;-77
2023/07/24 00:59:09;;;;;;;8.45;3.80;;;;;;;19.34;76.45;99895.50;685128;28;1030;-76
2023/07/24 00:59:30;;;;;;;7.65;3.65;;;;;;;19.38;76.33;99906.00;684999;28;902;-77
2023/07/24 00:59:50;;;;;;;6.67;3.80;;;;;;;19.35;76.45;99898.09;682617;29;1203;-77
2023/07/24 01:00:12;;;;;;;4.70;3.75;;;;;;;19.34;76.61;99904.31;684820;28;1070;-76
2023/07/24 01:00:33;;;;;;;4.45;3.65;;;;;;;19.33;76.34;99897.28;685075;28;1031;-76
2023/07/24 01:00:54;;;;;;;5.13;3.50;;;;;;;19.33;76.53;99907.88;679827;28;1248;-76
2023/07/24 01:01:17;;;;;;;5.50;3.65;;;;;;;19.34;76.62;99906.97;685151;28;965;-77
2023/07/24 01:01:41;;;;;;;5.63;3.60;;;;;;;19.29;76.54;99900.88;685148;28;1132;-77
2023/07/24 01:02:02;;;;;;;7.20;4.20;;;;;;;19.30;76.66;99902.66;685105;28;1096;-77
2023/07/24 01:02:23;;;;;;;8.15;4.38;;;;;;;19.38;76.75;99924.50;685137;28;1040;-77
2023/07/24 01:02:44;;;;;;;8.32;4.30;;;;;;;19.33;76.70;99902.56;684506;28;1401;-77
2023/07/24 01:03:05;;;;;;;6.20;3.90;;;;;;;19.32;76.59;99909.63;682446;28;1042;-77
2023/07/24 01:03:32;;;;;;;5.32;3.80;;;;;;;19.39;76.79;99928.00;687774;28;1066;-77
2023/07/24 01:03:54;;;;;;;6.65;3.95;;;;;;;19.34;76.42;99906.97;685232;28;1048;-77
2023/07/24 01:04:15;;;;;;;7.63;4.10;;;;;;;19.31;76.71;99891.16;687218;28;1159;-76
2023/07/24 01:04:35;;;;;;;7.25;4.20;;;;;;;19.34;76.61;99906.06;687690;28;1071;-77
2023/07/24 01:04:56;;;;;;;6.67;4.27;;;;;;;19.29;76.57;99891.19;687887;28;1031;-77
2023/07/24 01:05:17;;;;;;;6.20;4.47;;;;;;;19.30;76.79;99900.84;679918;29;1069;-77
2023/07/24 01:05:38;;;;;;;6.25;4.20;;;;;;;19.29;76.71;99907.06;681773;29;1081;-77
2023/07/24 01:06:00;;;;;;;5.60;3.80;;;;;;;19.28;76.75;99904.44;681876;28;1129;-77
2023/07/24 01:06:21;;;;;;;4.63;3.40;;;;;;;19.24;76.79;99897.50;682378;29;1227;-76
2023/07/24 01:06:42;;;;;;;4.97;3.50;;;;;;;19.20;76.75;99895.81;685138;28;1175;-76
2023/07/24 01:07:03;;;;;;;5.78;3.83;;;;;;;19.25;76.89;99901.88;687316;28;1142;-76
2023/07/24 01:07:23;;;;;;;5.70;3.70;;;;;;;19.20;76.92;99895.81;690227;28;1440;-77
2023/07/24 01:07:44;;;;;;;5.85;3.80;;;;;;;19.14;76.95;99895.06;690706;28;898;-77
2023/07/24 01:08:05;;;;;;;5.90;3.90;;;;;;;19.11;77.11;99897.75;690383;28;1028;-76
2023/07/24 01:08:26;;;;;;;7.05;4.10;;;;;;;19.14;77.02;99903.00;687688;28;1114;-77
2023/07/24 01:08:46;;;;;;;6.80;4.40;;;;;;;19.10;77.15;99900.41;687589;28;800;-77
2023/07/24 01:09:07;;;;;;;7.45;4.53;;;;;;;19.10;77.04;99901.31;685061;28;1037;-76
2023/07/24 01:09:28;;;;;;;6.72;4.60;;;;;;;19.09;77.12;99893.38;682015;28;1819;-77
2023/07/24 01:09:50;;;;;;;6.53;4.43;;;;;;;19.13;77.31;99898.56;677157;28;1812;-77
2023/07/24 01:10:11;;;;;;;6.07;4.43;;;;;;;19.11;77.22;99902.19;682162;29;981;-77
2023/07/24 01:10:32;;;;;;;5.40;4.18;;;;;;;19.10;77.29;99906.59;682890;28;966;-77
2023/07/24 01:10:54;;;;;;;6.23;4.17;;;;;;;19.06;77.31;99904.03;682529;28;1160;-77
2023/07/24 01:11:36;;;;;;;6.20;3.97;;;;;;;19.13;77.58;99919.72;681579;29;1359;-77
2023/07/24 01:12:02;;;;;;;5.53;3.67;;;;;;;19.07;77.34;99909.31;685186;28;984;-77
2023/07/24 01:12:35;;;;;;;5.40;3.90;;;;;;;19.09;77.42;99922.47;690355;28;1144;-77
2023/07/24 01:13:05;;;;;;;6.43;4.32;;;;;;;18.99;77.61;99903.28;682763;28;1171;-76
2023/07/24 01:13:30;;;;;;;5.68;4.05;;;;;;;19.05;77.62;99911.09;684941;28;1234;-77
2023/07/24 01:13:58;;;;;;;5.60;3.90;;;;;;;18.97;77.75;99903.31;690531;28;1226;-77
2023/07/24 01:14:27;;;;;;;5.28;3.72;;;;;;;19.03;77.85;99910.25;690357;28;914;-77
2023/07/24 01:14:54;;;;;;;5.32;3.70;;;;;;;18.98;77.66;99909.44;685138;28;1204;-77
2023/07/24 01:15:19;;;;;;;6.55;4.10;;;;;;;19.07;77.80;99916.34;687726;28;1041;-77
2023/07/24 01:15:56;;;;;;;6.05;3.80;;;;;;;18.96;77.79;99898.94;684393;28;1419;-77
2023/07/24 01:16:21;;;;;;;4.70;3.45;;;;;;;18.98;77.95;99902.41;686556;28;1110;-77
2023/07/24 01:16:46;;;;;;;4.80;3.60;;;;;;;19.00;78.04;99905.03;682072;28;2162;-77
2023/07/24 01:17:11;;;;;;;5.55;3.72;;;;;;;19.07;77.88;99906.66;685054;28;1103;-77
2023/07/24 01:17:32;;;;;;;6.45;4.13;;;;;;;18.98;77.99;99901.50;687183;28;1350;-77
2023/07/24 01:18:03;;;;;;;6.22;4.20;;;;;;;18.97;77.84;99905.94;686662;28;1239;-77
2023/07/24 01:18:26;;;;;;;5.18;3.75;;;;;;;19.00;77.95;99910.31;690141;28;1918;-77
2023/07/24 01:18:49;;;;;;;5.05;3.50;;;;;;;18.99;78.00;99908.56;685359;28;874;-77
2023/07/24 01:19:20;;;;;;;6.55;3.95;;;;;;;18.98;77.93;99901.50;687448;28;1040;-77
2023/07/24 01:19:45;;;;;;;8.52;4.20;;;;;;;19.06;78.14;99917.25;683065;28;1037;-77
2023/07/24 01:20:11;;;;;;;7.15;3.90;;;;;;;19.01;78.06;99906.75;690382;28;981;-78
2023/07/24 01:20:35;;;;;;;5.90;3.65;;;;;;;18.95;78.05;99898.94;685056;28;1097;-77
2023/07/24 01:20:58;;;;;;;6.22;3.60;;;;;;;19.02;78.20;99913.78;685166;28;894;-77
2023/07/24 01:21:33;;;;;;;7.82;3.90;;;;;;;19.06;78.00;99915.50;685227;28;917;-77
2023/07/24 01:22:14;;;;;;;7.60;4.20;;;;;;;19.03;78.25;99899.69;687879;28;1182;-77
2023/07/24 01:22:40;;;;;;;6.13;4.10;;;;;;;19.08;78.11;99916.34;685086;28;1012;-77
2023/07/24 01:23:25;;;;;;;6.35;4.20;;;;;;;19.10;78.33;99919.81;685126;28;904;-78
2023/07/24 01:24:31;;;;;;;5.50;3.95;;;;;;;19.13;78.26;99914.44;686875;28;877;-77
2023/07/24 01:25:14;;;;;;;5.90;3.50;;;;;;;19.14;78.19;99908.28;689284;28;1182;-77
2023/07/24 01:25:44;;;;;;;4.90;3.35;;;;;;;19.10;78.45;99906.59;687110;28;1043;-77
2023/07/24 01:26:07;;;;;;;5.30;3.80;;;;;;;19.04;78.13;99896.13;682175;28;1335;-77
2023/07/24 01:26:28;;;;;;;5.70;4.15;;;;;;;19.06;78.17;99898.75;684861;28;1248;-77
2023/07/24 01:26:50;;;;;;;5.07;3.90;;;;;;;19.01;78.23;99894.38;682522;29;772;-77
2023/07/24 01:27:11;;;;;;;4.80;3.85;;;;;;;19.08;78.20;99908.41;682448;29;1118;-77
2023/07/24 01:27:32;;;;;;;4.82;3.83;;;;;;;19.09;78.45;99909.25;682584;29;1020;-77
2023/07/24 01:27:53;;;;;;;5.13;4.20;;;;;;;19.06;78.32;99902.28;685084;28;1111;-77
2023/07/24 01:28:14;;;;;;;6.67;4.40;;;;;;;19.02;78.43;99900.56;685125;28;985;-77
2023/07/24 01:28:34;;;;;;;6.80;4.45;;;;;;;19.02;78.32;99898.81;682447;28;1119;-77
2023/07/24 01:28:55;;;;;;;7.25;4.30;;;;;;;19.08;78.44;99912.81;685267;28;1005;-77
2023/07/24 01:29:16;;;;;;;6.60;4.25;;;;;;;19.04;78.42;99898.78;682633;28;1135;-77
2023/07/24 01:29:37;;;;;;;6.50;4.03;;;;;;;19.03;78.52;99907.63;679711;29;1159;-77
2023/07/24 01:29:58;;;;;;;6.10;3.90;;;;;;;19.00;78.53;99894.44;682498;29;997;-77
2023/07/24 01:30:19;;;;;;;5.40;3.70;;;;;;;19.08;78.75;99912.81;682360;29;1215;-77
2023/07/24 01:30:41;;;;;;;5.93;3.90;;;;;;;19.01;78.82;99906.75;685085;28;1086;-78
2023/07/24 01:31:02;;;;;;;5.30;3.80;;;;;;;18.98;78.82;99896.22;682876;28;1203;-77
2023/07/24 01:31:26;;;;;;;5.33;3.90;;;;;;;19.04;78.91;99896.13;679876;29;836;-78
2023/07/24 01:31:46;;;;;;;4.97;3.53;;;;;;;19.07;78.82;99900.50;682648;29;795;-77
2023/07/24 01:32:10;;;;;;;5.18;3.50;;;;;;;19.05;79.00;99897.88;687622;28;1155;-77
2023/07/24 01:32:31;;;;;;;4.70;3.40;;;;;;;19.08;78.95;99905.75;690341;28;1113;-77
2023/07/24 01:32:52;;;;;;;5.10;3.60;;;;;;;19.10;78.77;99895.13;687746;28;1461;-78
2023/07/24 01:33:14;;;;;;;5.30;3.90;;;;;;;19.15;78.65;99902.09;679573;28;1481;-78
2023/07/24 01:33:36;;;;;;;6.22;4.28;;;;;;;19.13;78.86;99898.56;682409;28;1204;-77
2023/07/24 01:33:57;;;;;;;6.15;4.30;;;;;;;19.12;78.68;99891.56;684997;28;1416;-77
2023/07/24 01:34:18;;;;;;;6.35;4.03;;;;;;;19.16;78.62;99893.25;687801;28;1227;-77
2023/07/24 01:34:41;;;;;;;5.60;3.80;;;;;;;19.24;78.44;99902.78;687243;28;1119;-77
2023/07/24 01:35:02;;;;;;;6.68;3.60;;;;;;;19.15;78.57;99888.84;684817;28;1266;-77
2023/07/24 01:35:24;;;;;;;6.30;3.55;;;;;;;19.25;78.61;99900.09;682191;28;1136;-77
2023/07/24 01:35:53;;;;;;;7.20;3.60;;;;;;;19.17;78.69;99884.41;681955;29;1237;-77
2023/07/24 01:36:14;;;;;;;5.72;3.60;;;;;;;19.20;78.36;99887.88;687552;28;1647;-77
2023/07/24 01:36:35;;;;;;;4.90;3.60;;;;;;;19.23;78.45;99887.81;684988;28;1879;-77
2023/07/24 01:36:56;;;;;;;5.65;3.80;;;;;;;19.20;78.72;99885.22;682331;28;1640;-77
2023/07/24 01:37:20;;;;;;;5.25;3.75;;;;;;;19.16;78.62;99879.13;682393;28;1079;-77
2023/07/24 01:37:43;;;;;;;5.25;3.80;;;;;;;19.20;78.54;99887.88;682389;29;1068;-77
2023/07/24 01:38:04;;;;;;;4.40;3.50;;;;;;;19.20;78.45;99887.88;687863;28;1019;-77
2023/07/24 01:38:26;;;;;;;4.97;3.38;;;;;;;19.15;78.45;99883.56;687062;28;1910;-76
2023/07/24 01:38:49;;;;;;;6.00;3.70;;;;;;;19.11;78.44;99876.59;687907;28;792;-77
2023/07/24 01:39:10;;;;;;;6.40;3.90;;;;;;;19.10;78.58;99879.25;683710;28;1219;-77
2023/07/24 01:39:31;;;;;;;5.63;3.97;;;;;;;19.09;78.53;99883.69;685103;28;1054;-77
2023/07/24 01:39:53;;;;;;;5.70;4.20;;;;;;;19.17;78.39;99891.44;679851;29;1002;-77
2023/07/24 01:40:15;;;;;;;5.85;4.20;;;;;;;19.05;78.52;99879.38;685049;28;1098;-77
2023/07/24 01:41:10;;;;;;;6.15;4.20;;;;;;;19.12;78.50;99894.19;682273;29;1018;-77
2023/07/24 01:41:32;;;;;;;7.50;3.88;;;;;;;19.04;78.41;99888.22;684969;28;1089;-77
2023/07/24 01:41:53;;;;;;;6.55;3.60;;;;;;;19.06;78.54;99889.06;685236;28;1013;-77
2023/07/24 01:42:14;;;;;;;5.72;3.60;;;;;;;19.01;78.49;99889.09;679977;28;1002;-76
2023/07/24 01:42:35;;;;;;;5.80;3.70;;;;;;;18.98;78.52;99885.66;681940;29;1066;-77
2023/07/24 01:42:59;;;;;;;5.53;3.80;;;;;;;18.99;78.54;99888.28;685091;28;820;-77
2023/07/24 01:43:24;;;;;;;5.45;3.95;;;;;;;18.97;78.64;99883.91;685046;28;909;-77
2023/07/24 01:43:45;;;;;;;5.20;3.90;;;;;;;18.97;78.68;99890.09;690688;28;878;-77
2023/07/24 01:44:05;;;;;;;5.95;4.20;;;;;;;18.95;78.65;99886.63;685190;28;1091;-77
2023/07/24 01:44:26;;;;;;;5.10;3.90;;;;;;;18.97;78.83;99890.09;676781;28;1188;-77
2023/07/24 01:44:54;;;;;;;5.28;3.90;;;;;;;18.93;78.75;99887.53;685117;28;1118;-78
2023/07/24 01:45:15;;;;;;;5.50;3.80;;;;;;;18.90;78.78;99881.44;687829;28;851;-77
2023/07/24 01:45:36;;;;;;;6.27;4.10;;;;;;;18.88;78.53;99877.06;687156;28;947;-77
2023/07/24 01:45:57;;;;;;;6.18;4.15;;;;;;;18.90;78.73;99884.06;685235;28;849;-77
2023/07/24 01:46:17;;;;;;;5.60;3.92;;;;;;;18.93;78.73;99885.75;677047;29;1028;-77
2023/07/24 01:46:38;;;;;;;5.32;3.90;;;;;;;18.90;78.83;99889.34;679687;29;950;-77
2023/07/24 01:46:58;;;;;;;5.73;3.93;;;;;;;18.87;78.96;99884.13;677515;29;953;-77
2023/07/24 01:47:19;;;;;;;5.55;3.90;;;;;;;18.92;78.88;99886.66;677011;29;1315;-77
2023/07/24 01:47:40;;;;;;;5.38;3.70;;;;;;;18.89;79.19;99887.59;682442;29;987;-77